createdAt,value
2022-08-23T00:00:51.086Z,20.51
2022-08-23T00:03:55.748Z,20.56
2022-08-23T00:07:00.412Z,20.56
2022-08-23T00:10:04.837Z,20.53
2022-08-23T00:13:07.127Z,20.56
2022-08-23T00:16:09.823Z,20.56
2022-08-23T00:19:16.671Z,20.46
2022-08-23T00:22:19.240Z,20.57
2022-08-23T00:25:22.113Z,20.56
2022-08-23T00:28:24.621Z,20.57
2022-08-23T00:31:26.925Z,20.55
2022-08-23T00:34:29.880Z,20.52
2022-08-23T00:37:34.008Z,20.41
2022-08-23T00:40:36.619Z,20.53
2022-08-23T00:44:00.539Z,20.53
2022-08-23T00:47:23.299Z,20.50
2022-08-23T00:50:46.295Z,20.53
2022-08-23T00:53:55.572Z,20.45
2022-08-23T00:57:01.116Z,20.50
2022-08-23T01:00:08.194Z,20.50
2022-08-23T01:03:13.570Z,20.52
2022-08-23T01:06:32.506Z,20.51
2022-08-23T01:09:36.393Z,20.50
2022-08-23T01:12:46.228Z,20.49
2022-08-23T01:15:54.503Z,20.39
2022-08-23T01:18:57.528Z,20.49
2022-08-23T01:22:10.169Z,20.48
2022-08-23T01:25:21.599Z,20.38
2022-08-23T01:28:34.057Z,20.48
2022-08-23T01:31:37.083Z,20.51
2022-08-23T01:34:44.692Z,20.51
2022-08-23T01:37:48.675Z,20.52
2022-08-23T01:40:51.838Z,20.39
2022-08-23T01:43:55.031Z,20.52
2022-08-23T01:46:58.418Z,20.53
2022-08-23T01:50:00.967Z,20.54
2022-08-23T01:53:06.632Z,20.40
2022-08-23T01:56:09.624Z,20.54
2022-08-23T01:59:13.633Z,20.43
2022-08-23T02:02:17.024Z,20.49
2022-08-23T02:05:20.066Z,20.44
2022-08-23T02:08:41.330Z,20.52
2022-08-23T02:11:44.091Z,20.50
2022-08-23T02:14:46.745Z,20.43
2022-08-23T02:17:51.325Z,20.43
2022-08-23T02:20:53.943Z,20.37
2022-08-23T02:24:09.943Z,20.39
2022-08-23T02:27:16.901Z,20.50
2022-08-23T02:30:19.890Z,20.51
2022-08-23T02:33:36.898Z,20.48
2022-08-23T02:36:40.549Z,20.57
2022-08-23T02:39:44.451Z,20.55
2022-08-23T02:42:47.226Z,20.41
2022-08-23T02:45:51.542Z,20.43
2022-08-23T02:48:54.110Z,20.55
2022-08-23T02:51:57.219Z,20.54
2022-08-23T02:55:00.267Z,20.54
2022-08-23T02:58:02.889Z,20.45
2022-08-23T03:01:06.199Z,20.42
2022-08-23T03:04:10.243Z,20.54
2022-08-23T03:07:12.569Z,20.55
2022-08-23T03:10:16.947Z,20.56
2022-08-23T03:13:20.920Z,20.47
2022-08-23T03:16:24.423Z,20.47
2022-08-23T03:19:26.923Z,20.49
2022-08-23T03:22:29.469Z,20.60
2022-08-23T03:25:31.796Z,20.49
2022-08-23T03:28:36.348Z,20.32
2022-08-23T03:31:39.193Z,20.62
2022-08-23T03:34:41.915Z,20.54
2022-08-23T03:37:44.702Z,20.47
2022-08-23T03:40:52.322Z,20.60
2022-08-23T03:43:54.702Z,20.52
2022-08-23T03:46:57.365Z,20.38
2022-08-23T03:50:00.838Z,20.41
2022-08-23T03:53:04.328Z,20.41
2022-08-23T03:56:06.690Z,20.16
2022-08-23T03:59:13.719Z,20.32
2022-08-23T04:02:17.014Z,20.26
2022-08-23T04:05:19.676Z,20.22
2022-08-23T04:08:33.326Z,20.32
2022-08-23T04:11:36.757Z,20.17
2022-08-23T04:14:39.593Z,20.28
2022-08-23T04:17:42.926Z,20.16
2022-08-23T04:20:45.526Z,19.96
2022-08-23T04:23:48.306Z,20.05
2022-08-23T04:26:50.924Z,19.99
2022-08-23T04:29:53.874Z,19.78
2022-08-23T04:32:56.265Z,19.83
2022-08-23T04:36:00.787Z,19.75
2022-08-23T04:39:03.919Z,19.53
2022-08-23T04:42:19.490Z,19.62
2022-08-23T04:45:25.093Z,19.64
2022-08-23T04:48:27.853Z,19.66
2022-08-23T04:51:30.400Z,19.61
2022-08-23T04:54:33.007Z,19.71
2022-08-23T04:57:36.743Z,19.77
2022-08-23T05:00:39.537Z,19.88
2022-08-23T05:03:42.877Z,20.03
2022-08-23T05:06:45.873Z,20.10
2022-08-23T05:09:48.049Z,20.16
2022-08-23T05:12:50.740Z,20.15
2022-08-23T05:15:53.405Z,20.30
2022-08-23T05:18:56.829Z,20.36
2022-08-23T05:21:59.302Z,20.42
2022-08-23T05:25:03.214Z,20.47
2022-08-23T05:28:05.634Z,20.44
2022-08-23T05:31:13.045Z,20.36
2022-08-23T05:34:16.305Z,20.56
2022-08-23T05:37:20.328Z,20.59
2022-08-23T05:40:22.647Z,20.70
2022-08-23T05:43:31.814Z,20.64
2022-08-23T05:46:38.839Z,20.68
2022-08-23T05:49:44.715Z,20.79
2022-08-23T05:52:50.962Z,20.88
2022-08-23T05:55:54.215Z,20.89
2022-08-23T05:59:01.959Z,20.89
2022-08-23T06:02:07.452Z,20.88
2022-08-23T06:05:10.529Z,20.74
2022-08-23T06:08:17.653Z,20.85
2022-08-23T06:11:28.618Z,20.73
2022-08-23T06:14:33.869Z,20.85
2022-08-23T06:17:36.547Z,20.82
2022-08-23T06:20:39.777Z,20.67
2022-08-23T06:23:43.554Z,20.87
2022-08-23T06:26:45.973Z,20.91
2022-08-23T06:29:49.363Z,20.93
2022-08-23T06:32:54.539Z,20.96
2022-08-23T06:36:14.164Z,21.02
2022-08-23T06:39:23.932Z,21.06
2022-08-23T06:42:38.238Z,21.05
2022-08-23T06:45:44.136Z,21.05
2022-08-23T06:48:59.978Z,21.13
2022-08-23T06:52:08.131Z,21.22
2022-08-23T06:55:14.072Z,21.48
2022-08-23T06:58:21.448Z,21.66
2022-08-23T07:01:56.556Z,21.81
2022-08-23T07:04:59.739Z,21.96
2022-08-23T07:08:04.283Z,21.95
2022-08-23T07:11:09.394Z,21.84
2022-08-23T07:14:19.046Z,22.08
2022-08-23T07:17:23.868Z,22.06
2022-08-23T07:20:27.956Z,22.16
2022-08-23T07:23:35.001Z,22.29
2022-08-23T07:26:39.557Z,22.42
2022-08-23T07:29:42.430Z,22.47
2022-08-23T07:32:46.924Z,22.65
2022-08-23T07:35:50.733Z,22.66
2022-08-23T07:38:56.229Z,22.85
2022-08-23T07:42:00.896Z,22.67
2022-08-23T07:45:04.184Z,22.76
2022-08-23T07:48:07.836Z,23.01
2022-08-23T07:51:14.404Z,23.04
2022-08-23T07:54:19.428Z,23.47
2022-08-23T07:57:23.064Z,23.60
2022-08-23T08:00:26.131Z,23.83
2022-08-23T08:03:29.040Z,24.33
2022-08-23T08:06:46.356Z,24.84
2022-08-23T08:09:51.810Z,25.28
2022-08-23T08:12:54.376Z,24.67
2022-08-23T08:15:57.150Z,25.42
2022-08-23T08:19:02.431Z,25.56
2022-08-23T08:22:08.142Z,25.90
2022-08-23T08:25:15.076Z,25.14
2022-08-23T08:28:17.941Z,24.74
2022-08-23T08:31:20.264Z,24.55
2022-08-23T08:34:23.191Z,24.57
2022-08-23T08:37:27.325Z,24.74
2022-08-23T08:40:38.483Z,24.67
2022-08-23T08:44:15.809Z,24.74
2022-08-23T08:47:27.788Z,24.75
2022-08-23T08:50:39.142Z,24.33
2022-08-23T08:53:45.315Z,24.32
2022-08-23T08:56:53.551Z,24.09
2022-08-23T09:00:05.142Z,24.06
2022-08-23T09:03:20.488Z,23.86
2022-08-23T09:06:43.877Z,23.72
2022-08-23T09:10:09.420Z,23.59
2022-08-23T09:13:34.072Z,23.59
2022-08-23T09:17:08.827Z,23.78
2022-08-23T09:20:14.886Z,24.44
2022-08-23T09:23:34.407Z,24.86
2022-08-23T09:26:37.785Z,25.63
2022-08-23T09:29:59.143Z,26.09
2022-08-23T09:33:26.275Z,26.31
2022-08-23T09:36:34.104Z,26.44
2022-08-23T09:39:41.847Z,25.87
2022-08-23T09:42:44.818Z,26.14
2022-08-23T09:45:48.315Z,27.08
2022-08-23T09:48:51.087Z,27.95
2022-08-23T09:51:58.218Z,28.67
2022-08-23T09:55:09.752Z,29.45
2022-08-23T09:58:23.533Z,29.92
2022-08-23T10:01:29.501Z,30.04
2022-08-23T10:04:37.696Z,29.26
2022-08-23T10:07:43.715Z,27.96
2022-08-23T10:10:55.015Z,28.67
2022-08-23T10:13:59.803Z,28.14
2022-08-23T10:17:31.080Z,28.52
2022-08-23T10:20:41.706Z,28.58
2022-08-23T10:24:25.980Z,29.10
2022-08-23T10:28:04.187Z,29.26
2022-08-23T10:31:26.318Z,29.50
2022-08-23T10:34:56.165Z,30.17
2022-08-23T10:38:26.751Z,30.88
2022-08-23T10:41:48.760Z,29.97
2022-08-23T10:45:17.804Z,30.04
2022-08-23T10:48:21.339Z,30.66
2022-08-23T10:51:32.058Z,31.27
2022-08-23T10:54:59.506Z,31.56
2022-08-23T10:58:10.593Z,31.34
2022-08-23T11:01:16.804Z,31.25
2022-08-23T11:04:48.509Z,31.47
2022-08-23T11:08:05.923Z,30.96
2022-08-23T11:11:44.091Z,30.80
2022-08-23T11:14:55.934Z,30.45
2022-08-23T11:18:08.396Z,30.66
2022-08-23T11:21:42.098Z,30.62
2022-08-23T11:25:02.523Z,30.52
2022-08-23T11:28:23.557Z,28.89
2022-08-23T11:31:34.566Z,28.89
2022-08-23T11:34:50.983Z,29.64
2022-08-23T11:38:05.380Z,30.69
2022-08-23T11:41:16.986Z,31.54
2022-08-23T11:44:38.306Z,31.68
2022-08-23T11:47:44.598Z,31.86
2022-08-23T11:50:58.053Z,32.44
2022-08-23T11:54:18.110Z,32.29
2022-08-23T11:57:29.441Z,32.15
2022-08-23T12:01:06.221Z,31.27
2022-08-23T12:04:27.160Z,31.15
2022-08-23T12:08:01.572Z,31.67
2022-08-23T12:11:10.849Z,31.38
2022-08-23T12:14:42.483Z,31.12
2022-08-23T12:17:47.224Z,31.65
2022-08-23T12:20:58.989Z,32.09
2022-08-23T12:24:18.645Z,31.88
2022-08-23T12:27:33.005Z,31.04
2022-08-23T12:30:57.527Z,31.08
2022-08-23T12:34:15.543Z,30.22
2022-08-23T12:37:24.152Z,29.71
2022-08-23T12:40:35.011Z,29.43
2022-08-23T12:43:37.711Z,29.48
2022-08-23T12:46:44.156Z,29.24
2022-08-23T12:50:16.341Z,29.24
2022-08-23T12:53:28.427Z,29.16
2022-08-23T12:56:32.268Z,28.67
2022-08-23T12:59:48.736Z,28.43
2022-08-23T13:03:12.297Z,28.43
2022-08-23T13:06:21.896Z,28.54
2022-08-23T13:09:29.757Z,28.42
2022-08-23T13:12:32.214Z,28.25
2022-08-23T13:16:11.784Z,28.43
2022-08-23T13:19:25.307Z,28.55
2022-08-23T13:22:32.625Z,28.51
2022-08-23T13:25:41.007Z,28.52
2022-08-23T13:29:11.823Z,28.27
2022-08-23T13:32:28.564Z,28.24
2022-08-23T13:35:38.807Z,28.09
2022-08-23T13:38:42.279Z,28.02
2022-08-23T13:41:44.924Z,27.84
2022-08-23T13:44:47.264Z,27.72
2022-08-23T13:47:55.305Z,27.54
2022-08-23T13:51:17.516Z,27.48
2022-08-23T13:54:21.186Z,27.30
2022-08-23T13:57:25.614Z,27.11
2022-08-23T14:00:32.101Z,27.22
2022-08-23T14:03:38.407Z,27.10
2022-08-23T14:06:40.817Z,27.00
2022-08-23T14:09:44.705Z,27.03
2022-08-23T14:12:48.384Z,27.09
2022-08-23T14:16:32.161Z,27.05
2022-08-23T14:19:17.896Z,26.97
2022-08-23T14:22:36.372Z,26.95
2022-08-23T14:25:38.756Z,27.08
2022-08-23T14:28:46.622Z,27.04
2022-08-23T14:31:49.940Z,26.98
2022-08-23T14:34:52.562Z,26.85
2022-08-23T14:38:05.127Z,26.76
2022-08-23T14:41:11.380Z,26.72
2022-08-23T14:44:16.515Z,26.67
2022-08-23T14:47:21.635Z,26.67
2022-08-23T14:50:23.980Z,26.67
2022-08-23T14:53:29.911Z,26.58
2022-08-23T14:56:33.524Z,26.69
2022-08-23T14:59:36.139Z,26.66
2022-08-23T15:02:38.706Z,26.38
2022-08-23T15:05:41.296Z,26.57
2022-08-23T15:08:43.698Z,26.54
2022-08-23T15:15:21.983Z,26.34
2022-08-23T15:18:25.841Z,26.38
2022-08-23T15:21:30.346Z,26.34
2022-08-23T15:24:33.187Z,26.40
2022-08-23T15:27:35.479Z,26.38
2022-08-23T15:30:38.322Z,26.33
2022-08-23T15:33:42.529Z,26.31
2022-08-23T15:36:45.150Z,26.32
2022-08-23T15:39:49.050Z,26.17
2022-08-23T15:42:51.903Z,26.13
2022-08-23T15:45:54.292Z,26.12
2022-08-23T15:49:23.444Z,26.03
2022-08-23T15:52:28.789Z,26.08
2022-08-23T15:55:34.197Z,26.04
2022-08-23T15:58:38.734Z,25.97
2022-08-23T16:01:42.419Z,26.00
2022-08-23T16:04:45.293Z,26.01
2022-08-23T16:07:52.766Z,25.96
2022-08-23T16:10:57.095Z,25.78
2022-08-23T16:13:59.696Z,25.79
2022-08-23T16:17:03.689Z,25.75
2022-08-23T16:20:08.089Z,25.67
2022-08-23T16:23:10.993Z,25.59
2022-08-23T16:26:17.267Z,25.51
2022-08-23T16:29:24.393Z,25.36
2022-08-23T16:32:26.982Z,25.29
2022-08-23T16:35:34.356Z,25.36
2022-08-23T16:38:37.589Z,25.29
2022-08-23T16:41:40.124Z,25.10
2022-08-23T16:44:42.548Z,25.18
2022-08-23T16:47:49.436Z,24.93
2022-08-23T16:50:52.687Z,25.06
2022-08-23T16:54:02.278Z,24.98
2022-08-23T16:57:06.163Z,24.90
2022-08-23T17:00:14.859Z,24.77
2022-08-23T17:03:19.041Z,24.80
2022-08-23T17:06:21.771Z,24.74
2022-08-23T17:09:27.294Z,24.52
2022-08-23T17:12:31.285Z,24.54
2022-08-23T17:15:35.516Z,24.37
2022-08-23T17:18:39.022Z,24.38
2022-08-23T17:21:43.026Z,24.23
2022-08-23T17:24:45.617Z,24.16
2022-08-23T17:27:49.234Z,24.19
2022-08-23T17:30:52.204Z,24.13
2022-08-23T17:33:55.312Z,24.05
2022-08-23T17:36:58.082Z,23.95
2022-08-23T17:40:00.655Z,23.98
2022-08-23T17:43:05.988Z,23.93
2022-08-23T17:46:10.956Z,23.78
2022-08-23T17:49:15.334Z,23.74
2022-08-23T17:52:21.030Z,23.68
2022-08-23T17:55:30.056Z,23.66
2022-08-23T17:58:34.313Z,23.56
2022-08-23T18:01:38.053Z,23.51
2022-08-23T18:04:41.514Z,23.51
2022-08-23T18:07:44.457Z,23.35
2022-08-23T18:10:47.245Z,23.38
2022-08-23T18:13:49.798Z,23.21
2022-08-23T18:16:52.387Z,23.19
2022-08-23T18:19:54.785Z,23.25
2022-08-23T18:22:59.551Z,23.19
2022-08-23T18:26:07.771Z,23.16
2022-08-23T18:29:12.222Z,23.13
2022-08-23T18:32:14.719Z,23.01
2022-08-23T18:35:19.784Z,23.02
2022-08-23T18:38:24.095Z,22.89
2022-08-23T18:41:26.989Z,22.96
2022-08-23T18:44:30.257Z,22.94
2022-08-23T18:47:33.040Z,22.81
2022-08-23T18:50:35.262Z,22.91
2022-08-23T18:53:38.009Z,22.88
2022-08-23T18:56:40.591Z,22.74
2022-08-23T18:59:44.367Z,22.79
2022-08-23T19:02:46.608Z,22.50
2022-08-23T19:05:49.163Z,22.65
2022-08-23T19:08:52.192Z,22.71
2022-08-23T19:11:54.806Z,22.70
2022-08-23T19:14:57.177Z,22.69
2022-08-23T19:18:00.103Z,22.57
2022-08-23T19:21:06.677Z,22.68
2022-08-23T19:24:11.550Z,22.62
2022-08-23T19:27:15.066Z,22.57
2022-08-23T19:30:17.899Z,22.66
2022-08-23T19:33:20.731Z,22.51
2022-08-23T19:36:44.612Z,22.62
2022-08-23T19:39:52.125Z,22.59
2022-08-23T19:42:55.436Z,22.48
2022-08-23T19:45:57.818Z,22.57
2022-08-23T19:49:00.458Z,22.53
2022-08-23T19:52:05.402Z,22.52
2022-08-23T19:55:09.776Z,22.43
2022-08-23T19:58:13.933Z,22.51
2022-08-23T20:01:16.535Z,22.49
2022-08-23T20:04:21.100Z,22.37
2022-08-23T20:07:23.435Z,22.45
2022-08-23T20:10:28.752Z,22.43
2022-08-23T20:13:32.198Z,22.34
2022-08-23T20:16:40.868Z,22.43
2022-08-23T20:19:43.854Z,22.40
2022-08-23T20:23:05.136Z,22.39
2022-08-23T20:26:07.709Z,22.41
2022-08-23T20:29:21.473Z,22.27
2022-08-23T20:32:23.736Z,22.37
2022-08-23T20:35:27.373Z,22.34
2022-08-23T20:38:33.812Z,22.23
2022-08-23T20:41:38.760Z,22.32
2022-08-23T20:44:41.133Z,22.27
2022-08-23T20:47:43.709Z,22.15
2022-08-23T20:50:45.973Z,22.10
2022-08-23T20:53:48.657Z,22.20
2022-08-23T20:56:51.895Z,22.11
2022-08-23T20:59:54.689Z,22.10
2022-08-23T21:02:57.222Z,22.16
2022-08-23T21:06:14.811Z,22.12
2022-08-23T21:09:20.373Z,22.12
2022-08-23T21:12:25.044Z,22.02
2022-08-23T21:15:27.351Z,22.04
2022-08-23T21:18:32.651Z,22.13
2022-08-23T21:21:37.151Z,22.07
2022-08-23T21:24:40.680Z,22.07
2022-08-23T21:27:44.649Z,21.89
2022-08-23T21:30:47.550Z,22.06
2022-08-23T21:33:50.442Z,21.93
2022-08-23T21:36:55.612Z,22.03
2022-08-23T21:39:57.979Z,21.88
2022-08-23T21:43:00.612Z,21.96
2022-08-23T21:46:07.700Z,21.85
2022-08-23T21:49:12.435Z,21.94
2022-08-23T21:52:14.903Z,21.77
2022-08-23T21:55:17.510Z,21.84
2022-08-23T21:58:19.750Z,21.82
2022-08-23T22:01:22.336Z,21.90
2022-08-23T22:04:27.942Z,21.89
2022-08-23T22:07:30.221Z,21.91
2022-08-23T22:10:32.790Z,21.74
2022-08-23T22:13:36.017Z,21.88
2022-08-23T22:16:40.845Z,21.85
2022-08-23T22:19:43.575Z,21.78
2022-08-23T22:22:46.124Z,21.71
2022-08-23T22:25:48.338Z,21.80
2022-08-23T22:28:50.867Z,21.72
2022-08-23T22:31:53.421Z,21.78
2022-08-23T22:34:56.021Z,21.63
2022-08-23T22:38:14.617Z,21.73
2022-08-23T22:41:20.258Z,21.69
2022-08-23T22:44:22.541Z,21.69
2022-08-23T22:47:25.427Z,21.64
2022-08-23T22:50:27.898Z,21.60
2022-08-23T22:53:51.032Z,21.46
2022-08-23T22:56:58.489Z,21.56
2022-08-23T23:00:01.004Z,21.55
2022-08-23T23:03:04.045Z,21.52
2022-08-23T23:06:09.930Z,21.39
2022-08-23T23:09:13.660Z,21.47
2022-08-23T23:12:17.629Z,21.34
2022-08-23T23:15:20.983Z,21.40
2022-08-23T23:18:24.436Z,21.26
2022-08-23T23:21:26.585Z,21.34
2022-08-23T23:24:36.942Z,21.20
2022-08-23T23:27:39.183Z,21.18
2022-08-23T23:30:43.322Z,21.17
2022-08-23T23:33:45.660Z,21.16
2022-08-23T23:36:48.405Z,21.25
2022-08-23T23:39:50.979Z,21.14
2022-08-23T23:42:54.411Z,21.20
2022-08-23T23:45:56.734Z,21.13
2022-08-23T23:48:59.353Z,21.07
2022-08-23T23:52:04.162Z,21.15
2022-08-23T23:55:17.889Z,21.15
2022-08-23T23:58:20.215Z,21.15
